createdAt,value
2023-12-26T00:00:59.486Z,1.8
2023-12-26T00:01:59.438Z,1.7
2023-12-26T00:03:07.013Z,1.7
2023-12-26T00:03:59.482Z,1.7
2023-12-26T00:04:59.476Z,1.7
2023-12-26T00:05:59.696Z,1.7
2023-12-26T00:06:59.441Z,1.7
2023-12-26T00:07:59.439Z,1.7
2023-12-26T00:08:59.491Z,1.7
2023-12-26T00:10:09.731Z,1.6
2023-12-26T00:10:59.495Z,1.7
2023-12-26T00:11:59.558Z,1.7
2023-12-26T00:12:59.467Z,1.6
2023-12-26T00:13:59.460Z,1.7
2023-12-26T00:14:59.465Z,1.8
2023-12-26T00:15:59.454Z,1.8
2023-12-26T00:16:59.437Z,1.8
2023-12-26T00:17:59.540Z,1.8
2023-12-26T00:18:59.720Z,1.9
2023-12-26T00:19:59.458Z,1.9
2023-12-26T00:20:59.480Z,1.9
2023-12-26T00:21:59.444Z,2
2023-12-26T00:22:59.445Z,2
2023-12-26T00:23:59.453Z,2.1
2023-12-26T00:24:59.449Z,2.1
2023-12-26T00:25:59.584Z,2.1
2023-12-26T00:26:59.484Z,2.2
2023-12-26T00:28:05.987Z,2.2
2023-12-26T00:28:59.441Z,2.4
2023-12-26T00:29:59.506Z,2.5
2023-12-26T00:30:59.487Z,2.6
2023-12-26T00:31:59.456Z,2.6
2023-12-26T00:32:59.676Z,2.6
2023-12-26T00:33:59.642Z,2.7
2023-12-26T00:34:59.458Z,2.8
2023-12-26T00:35:59.520Z,2.8
2023-12-26T00:36:59.479Z,2.8
2023-12-26T00:37:59.445Z,2.8
2023-12-26T00:38:59.507Z,2.8
2023-12-26T00:40:01.479Z,2.9
2023-12-26T00:40:59.442Z,2.9
2023-12-26T00:41:59.470Z,3
2023-12-26T00:42:59.440Z,3
2023-12-26T00:43:59.464Z,3.1
2023-12-26T00:44:59.502Z,3.1
2023-12-26T00:45:59.457Z,3.1
2023-12-26T00:46:59.467Z,3.1
2023-12-26T00:47:59.650Z,3.1
2023-12-26T00:48:59.571Z,3.1
2023-12-26T00:49:59.464Z,3.1
2023-12-26T00:50:59.490Z,3.2
2023-12-26T00:51:59.455Z,3.2
2023-12-26T00:52:59.457Z,3.2
2023-12-26T00:53:59.494Z,3.2
2023-12-26T00:54:59.444Z,3.2
2023-12-26T00:55:59.449Z,3.2
2023-12-26T00:57:05.687Z,3.2
2023-12-26T00:57:59.441Z,3.2
2023-12-26T00:58:59.473Z,3.2
2023-12-26T00:59:59.496Z,3.2
2023-12-26T01:00:59.490Z,3.2
2023-12-26T01:01:59.461Z,3.2
2023-12-26T01:02:59.711Z,3.1
2023-12-26T01:03:59.564Z,3.1
2023-12-26T01:04:59.493Z,3.1
2023-12-26T01:05:59.499Z,3.1
2023-12-26T01:06:59.454Z,3.1
2023-12-26T01:07:59.453Z,3.1
2023-12-26T01:08:59.475Z,3.1
2023-12-26T01:09:59.442Z,3.2
2023-12-26T01:10:59.453Z,3.2
2023-12-26T01:11:59.539Z,3.2
2023-12-26T01:12:59.447Z,3.2
2023-12-26T01:13:59.452Z,3.2
2023-12-26T01:14:59.496Z,3.2
2023-12-26T01:15:59.462Z,3.2
2023-12-26T01:16:59.468Z,3.2
2023-12-26T01:18:00.105Z,3.2
2023-12-26T01:18:59.652Z,3.2
2023-12-26T01:19:59.441Z,3.2
2023-12-26T01:20:59.492Z,3.1
2023-12-26T01:21:59.442Z,3.1
2023-12-26T01:22:59.449Z,3.1
2023-12-26T01:23:59.481Z,3.1
2023-12-26T01:24:59.465Z,3.1
2023-12-26T01:25:59.470Z,3.1
2023-12-26T01:26:59.484Z,3.1
2023-12-26T01:27:59.462Z,3.1
2023-12-26T01:28:59.469Z,3.1
2023-12-26T01:29:59.476Z,3
2023-12-26T01:31:06.293Z,3
2023-12-26T01:31:59.452Z,3
2023-12-26T01:33:06.274Z,3
2023-12-26T01:33:59.540Z,3
2023-12-26T01:34:59.457Z,3.1
2023-12-26T01:35:59.521Z,3.1
2023-12-26T01:36:59.472Z,3.1
2023-12-26T01:37:59.476Z,3.2
2023-12-26T01:38:59.476Z,3.2
2023-12-26T01:39:59.490Z,3.2
2023-12-26T01:40:59.503Z,3.2
2023-12-26T01:41:59.553Z,3.2
2023-12-26T01:42:59.529Z,3.3
2023-12-26T01:43:59.601Z,3.3
2023-12-26T01:44:59.471Z,3.3
2023-12-26T01:45:59.443Z,3.4
2023-12-26T01:47:00.413Z,3.4
2023-12-26T01:47:59.655Z,3.4
2023-12-26T01:48:59.651Z,3.4
2023-12-26T01:49:59.509Z,3.4
2023-12-26T01:50:59.539Z,3.4
2023-12-26T01:51:59.509Z,3.4
2023-12-26T01:52:59.476Z,3.4
2023-12-26T01:53:59.505Z,3.4
2023-12-26T01:54:59.466Z,3.4
2023-12-26T01:55:59.464Z,3.4
2023-12-26T01:56:59.566Z,3.4
2023-12-26T01:57:59.472Z,3.3
2023-12-26T01:58:59.470Z,3.3
2023-12-26T01:59:59.504Z,3.3
2023-12-26T02:01:05.835Z,3.3
2023-12-26T02:01:59.484Z,3.3
2023-12-26T02:02:59.868Z,3.4
2023-12-26T02:03:59.520Z,3.3
2023-12-26T02:04:59.508Z,3.3
2023-12-26T02:05:59.496Z,3.3
2023-12-26T02:06:59.477Z,3.3
2023-12-26T02:07:59.453Z,3.3
2023-12-26T02:08:59.495Z,3.3
2023-12-26T02:09:59.475Z,3.3
2023-12-26T02:10:59.465Z,3.3
2023-12-26T02:11:59.518Z,3.3
2023-12-26T02:12:59.466Z,3.3
2023-12-26T02:13:59.494Z,3.3
2023-12-26T02:14:59.514Z,3.4
2023-12-26T02:15:59.459Z,3.4
2023-12-26T02:16:59.464Z,3.4
2023-12-26T02:17:59.681Z,3.4
2023-12-26T02:18:59.620Z,3.4
2023-12-26T02:19:59.549Z,3.4
2023-12-26T02:20:59.460Z,3.4
2023-12-26T02:21:59.442Z,3.4
2023-12-26T02:23:00.486Z,3.4
2023-12-26T02:23:59.502Z,3.4
2023-12-26T02:24:59.447Z,3.4
2023-12-26T02:25:59.471Z,3.4
2023-12-26T02:26:59.540Z,3.4
2023-12-26T02:27:59.446Z,3.4
2023-12-26T02:28:59.445Z,3.4
2023-12-26T02:29:59.522Z,3.4
2023-12-26T02:30:59.497Z,3.4
2023-12-26T02:31:59.456Z,3.4
2023-12-26T02:32:59.941Z,3.3
2023-12-26T02:33:59.566Z,3.3
2023-12-26T02:34:59.434Z,3.3
2023-12-26T02:35:59.462Z,3.3
2023-12-26T02:36:59.440Z,3.3
2023-12-26T02:37:59.433Z,3.3
2023-12-26T02:38:59.454Z,3.2
2023-12-26T02:39:59.455Z,3.2
2023-12-26T02:40:59.447Z,3.2
2023-12-26T02:41:59.498Z,3.1
2023-12-26T02:42:59.438Z,3.1
2023-12-26T02:43:59.448Z,3.1
2023-12-26T02:44:59.584Z,3.1
2023-12-26T02:45:59.485Z,3.1
2023-12-26T02:46:59.453Z,3
2023-12-26T02:47:59.645Z,3
2023-12-26T02:48:59.644Z,3
2023-12-26T02:49:59.456Z,3
2023-12-26T02:50:59.538Z,2.9
2023-12-26T02:51:59.443Z,2.9
2023-12-26T02:52:59.453Z,2.9
2023-12-26T02:53:59.452Z,2.9
2023-12-26T02:54:59.443Z,2.9
2023-12-26T02:55:59.438Z,2.8
2023-12-26T02:56:59.468Z,2.8
2023-12-26T02:57:59.464Z,2.7
2023-12-26T02:58:59.456Z,2.6
2023-12-26T02:59:59.480Z,2.6
2023-12-26T03:00:59.345Z,2.6
2023-12-26T03:01:59.448Z,2.6
2023-12-26T03:02:59.703Z,2.6
2023-12-26T03:03:59.591Z,2.5
2023-12-26T03:04:59.501Z,2.5
2023-12-26T03:05:59.557Z,2.5
2023-12-26T03:06:59.439Z,2.5
2023-12-26T03:07:59.455Z,2.4
2023-12-26T03:08:59.519Z,2.5
2023-12-26T03:09:59.479Z,2.4
2023-12-26T03:10:59.444Z,2.4
2023-12-26T03:11:59.532Z,2.3
2023-12-26T03:12:59.456Z,2.2
2023-12-26T03:13:59.464Z,2.2
2023-12-26T03:14:59.518Z,2.2
2023-12-26T03:15:59.457Z,2.2
2023-12-26T03:16:59.464Z,2.1
2023-12-26T03:17:59.603Z,2.1
2023-12-26T03:18:59.623Z,2.1
2023-12-26T03:19:59.496Z,2.2
2023-12-26T03:20:59.465Z,2.1
2023-12-26T03:21:59.455Z,2.2
2023-12-26T03:22:59.455Z,2.2
2023-12-26T03:23:59.502Z,2.2
2023-12-26T03:24:59.484Z,2.1
2023-12-26T03:25:59.463Z,2.2
2023-12-26T03:26:59.498Z,2.1
2023-12-26T03:27:59.480Z,2.1
2023-12-26T03:28:59.464Z,2
2023-12-26T03:29:59.523Z,2
2023-12-26T03:30:59.504Z,1.9
2023-12-26T03:31:59.452Z,1.9
2023-12-26T03:32:59.850Z,1.9
2023-12-26T03:33:59.608Z,1.9
2023-12-26T03:34:59.470Z,1.9
2023-12-26T03:35:59.517Z,1.9
2023-12-26T03:36:59.459Z,1.9
2023-12-26T03:37:59.469Z,1.9
2023-12-26T03:38:59.471Z,1.8
2023-12-26T03:39:59.461Z,1.8
2023-12-26T03:40:59.453Z,1.8
2023-12-26T03:41:59.496Z,1.8
2023-12-26T03:42:59.463Z,1.8
2023-12-26T03:43:59.466Z,1.7
2023-12-26T03:44:59.520Z,1.7
2023-12-26T03:45:59.470Z,1.6
2023-12-26T03:46:59.495Z,1.6
2023-12-26T03:47:59.674Z,1.6
2023-12-26T03:48:59.563Z,1.6
2023-12-26T03:49:59.591Z,1.6
2023-12-26T03:50:59.509Z,1.6
2023-12-26T03:51:59.478Z,1.6
2023-12-26T03:52:59.632Z,1.7
2023-12-26T03:53:59.487Z,1.7
2023-12-26T03:54:59.559Z,1.7
2023-12-26T03:55:59.468Z,1.6
2023-12-26T03:56:59.495Z,1.6
2023-12-26T03:57:59.450Z,1.6
2023-12-26T03:58:59.463Z,1.6
2023-12-26T03:59:59.534Z,1.7
2023-12-26T04:00:59.470Z,1.7
2023-12-26T04:01:59.445Z,1.7
2023-12-26T04:03:15.263Z,1.7
2023-12-26T04:03:59.578Z,1.7
2023-12-26T04:04:59.530Z,1.6
2023-12-26T04:05:59.484Z,1.7
2023-12-26T04:06:59.455Z,1.7
2023-12-26T04:07:59.460Z,1.7
2023-12-26T04:08:59.504Z,1.6
2023-12-26T04:10:08.072Z,1.6
2023-12-26T04:10:59.463Z,1.7
2023-12-26T04:11:59.487Z,1.7
2023-12-26T04:12:59.443Z,1.6
2023-12-26T04:13:59.447Z,1.6
2023-12-26T04:14:59.500Z,1.6
2023-12-26T04:15:59.460Z,1.6
2023-12-26T04:16:59.455Z,1.6
2023-12-26T04:17:59.534Z,1.7
2023-12-26T04:18:59.592Z,1.7
2023-12-26T04:19:59.463Z,1.7
2023-12-26T04:20:59.497Z,1.7
2023-12-26T04:21:59.445Z,1.7
2023-12-26T04:22:59.483Z,1.7
2023-12-26T04:23:59.483Z,1.7
2023-12-26T04:24:59.452Z,1.7
2023-12-26T04:25:59.453Z,1.7
2023-12-26T04:26:59.494Z,1.8
2023-12-26T04:27:59.700Z,1.8
2023-12-26T04:28:59.451Z,1.7
2023-12-26T04:29:59.495Z,1.8
2023-12-26T04:30:59.472Z,1.8
2023-12-26T04:31:59.442Z,1.8
2023-12-26T04:32:59.933Z,1.8
2023-12-26T04:33:59.666Z,1.7
2023-12-26T04:34:59.465Z,1.7
2023-12-26T04:35:59.484Z,1.8
2023-12-26T04:36:59.462Z,1.8
2023-12-26T04:38:09.036Z,1.7
2023-12-26T04:38:59.546Z,1.7
2023-12-26T04:39:59.454Z,1.7
2023-12-26T04:40:59.451Z,1.8
2023-12-26T04:41:59.451Z,1.8
2023-12-26T04:42:59.473Z,1.8
2023-12-26T04:43:59.498Z,1.8
2023-12-26T04:44:59.495Z,1.8
2023-12-26T04:45:59.463Z,1.8
2023-12-26T04:46:59.468Z,1.8
2023-12-26T04:47:59.632Z,1.9
2023-12-26T04:48:59.587Z,1.9
2023-12-26T04:49:59.466Z,1.9
2023-12-26T04:50:59.483Z,1.9
2023-12-26T04:52:04.633Z,1.9
2023-12-26T04:52:59.456Z,1.9
2023-12-26T04:53:59.487Z,1.8
2023-12-26T04:54:59.462Z,1.8
2023-12-26T04:55:59.463Z,1.8
2023-12-26T04:56:59.532Z,1.8
2023-12-26T04:57:59.448Z,1.9
2023-12-26T04:58:59.461Z,1.9
2023-12-26T04:59:59.702Z,1.9
2023-12-26T05:00:59.495Z,1.9
2023-12-26T05:01:59.470Z,2
2023-12-26T05:02:59.982Z,2
2023-12-26T05:03:59.486Z,2
2023-12-26T05:04:59.479Z,2
2023-12-26T05:05:59.535Z,2
2023-12-26T05:06:59.464Z,2
2023-12-26T05:07:59.464Z,2
2023-12-26T05:08:59.496Z,2.1
2023-12-26T05:09:59.455Z,2.1
2023-12-26T05:10:59.443Z,2.1
2023-12-26T05:11:59.527Z,2.1
2023-12-26T05:13:08.397Z,2.1
2023-12-26T05:13:59.460Z,2.2
2023-12-26T05:14:59.575Z,2.2
2023-12-26T05:15:59.474Z,2.2
2023-12-26T05:16:59.535Z,2.2
2023-12-26T05:22:09.729Z,2.2
2023-12-26T05:22:59.859Z,2.3
2023-12-26T05:23:59.444Z,2.3
2023-12-26T05:25:00.694Z,2.3
2023-12-26T05:26:04.859Z,2.3
2023-12-26T05:26:59.477Z,2.3
2023-12-26T05:27:59.442Z,2.3
2023-12-26T05:28:59.414Z,2.3
2023-12-26T05:29:59.448Z,2.3
2023-12-26T05:30:59.433Z,2.3
2023-12-26T05:31:59.410Z,2.3
2023-12-26T05:32:59.847Z,2.3
2023-12-26T05:33:59.547Z,2.3
2023-12-26T05:34:59.413Z,2.4
2023-12-26T05:35:59.413Z,2.4
2023-12-26T05:36:59.401Z,2.4
2023-12-26T05:37:59.399Z,2.4
2023-12-26T05:38:59.449Z,2.4
2023-12-26T05:39:59.404Z,2.4
2023-12-26T05:40:59.406Z,2.4
2023-12-26T05:41:59.430Z,2.5
2023-12-26T05:42:59.763Z,2.5
2023-12-26T05:43:59.417Z,2.6
2023-12-26T05:44:59.491Z,2.6
2023-12-26T05:45:59.415Z,2.6
2023-12-26T05:46:59.453Z,2.6
2023-12-26T05:47:59.707Z,2.6
2023-12-26T05:49:00.073Z,2.6
2023-12-26T05:49:59.604Z,2.6
2023-12-26T05:50:59.519Z,2.6
2023-12-26T05:51:59.399Z,2.6
2023-12-26T05:52:59.680Z,2.6
2023-12-26T05:53:59.558Z,2.6
2023-12-26T05:54:59.504Z,2.7
2023-12-26T05:55:59.401Z,2.7
2023-12-26T05:56:59.511Z,2.7
2023-12-26T05:58:02.630Z,2.7
2023-12-26T05:58:59.459Z,2.7
2023-12-26T05:59:59.644Z,2.7
2023-12-26T06:00:59.541Z,2.8
2023-12-26T06:01:59.518Z,2.8
2023-12-26T06:02:59.955Z,2.8
2023-12-26T06:03:59.572Z,2.8
2023-12-26T06:04:59.540Z,2.8
2023-12-26T06:05:59.515Z,2.8
2023-12-26T06:06:59.504Z,2.8
2023-12-26T06:07:59.424Z,2.9
2023-12-26T06:08:59.507Z,2.9
2023-12-26T06:09:59.419Z,2.9
2023-12-26T06:10:59.426Z,2.9
2023-12-26T06:11:59.457Z,2.9
2023-12-26T06:12:59.420Z,3
2023-12-26T06:14:08.912Z,3.1
2023-12-26T06:14:59.470Z,3.1
2023-12-26T06:15:59.421Z,3.1
2023-12-26T06:16:59.407Z,3.1
2023-12-26T06:17:59.503Z,3.1
2023-12-26T06:18:59.607Z,3.1
2023-12-26T06:19:59.531Z,3.1
2023-12-26T06:20:59.482Z,3.2
2023-12-26T06:21:59.396Z,3.2
2023-12-26T06:22:59.428Z,3.2
2023-12-26T06:23:59.426Z,3.2
2023-12-26T06:25:01.995Z,3.2
2023-12-26T06:25:59.407Z,3.2
2023-12-26T06:26:59.415Z,3.1
2023-12-26T06:27:59.418Z,3.2
2023-12-26T06:28:59.414Z,3.2
2023-12-26T06:29:59.437Z,3.2
2023-12-26T06:30:59.457Z,3.2
2023-12-26T06:31:59.401Z,3.1
2023-12-26T06:33:00.046Z,3.1
2023-12-26T06:33:59.576Z,3.1
2023-12-26T06:34:59.433Z,3.1
2023-12-26T06:35:59.453Z,3.2
2023-12-26T06:36:59.415Z,3.2
2023-12-26T06:37:59.416Z,3.2
2023-12-26T06:38:59.441Z,3.2
2023-12-26T06:39:59.423Z,3.2
2023-12-26T06:40:59.429Z,3.2
2023-12-26T06:41:59.452Z,3.2
2023-12-26T06:42:59.453Z,3.2
2023-12-26T06:43:59.434Z,3.2
2023-12-26T06:44:59.430Z,3.2
2023-12-26T06:45:59.418Z,3.2
2023-12-26T06:46:59.403Z,3.2
2023-12-26T06:47:59.481Z,3.2
2023-12-26T06:48:59.462Z,3.2
2023-12-26T06:49:59.409Z,3.2
2023-12-26T06:50:59.441Z,3.3
2023-12-26T06:51:59.398Z,3.4
2023-12-26T06:52:59.414Z,3.5
2023-12-26T06:53:59.448Z,3.5
2023-12-26T06:54:59.421Z,3.6
2023-12-26T06:55:59.413Z,3.6
2023-12-26T06:56:59.449Z,3.7
2023-12-26T06:57:59.414Z,3.8
2023-12-26T06:58:59.421Z,3.8
2023-12-26T06:59:59.455Z,3.9
2023-12-26T07:00:59.475Z,3.9
2023-12-26T07:01:59.397Z,3.9
2023-12-26T07:02:59.914Z,4
2023-12-26T07:03:59.512Z,4.1
2023-12-26T07:04:59.473Z,4.1
2023-12-26T07:05:59.496Z,4
2023-12-26T07:06:59.436Z,4
2023-12-26T07:07:59.409Z,4
2023-12-26T07:08:59.431Z,4.1
2023-12-26T07:09:59.425Z,4.1
2023-12-26T07:10:59.419Z,4.1
2023-12-26T07:11:59.442Z,4.1
2023-12-26T07:12:59.410Z,4.1
2023-12-26T07:13:59.411Z,4.2
2023-12-26T07:14:59.426Z,4.2
2023-12-26T07:15:59.437Z,4.2
2023-12-26T07:16:59.402Z,4.2
2023-12-26T07:18:00.067Z,4.2
2023-12-26T07:19:00.080Z,4.2
2023-12-26T07:20:09.057Z,4.2
2023-12-26T07:20:59.505Z,4.2
2023-12-26T07:21:59.403Z,4.2
2023-12-26T07:22:59.590Z,4.3
2023-12-26T07:23:59.511Z,4.3
2023-12-26T07:24:59.400Z,4.4
2023-12-26T07:25:59.396Z,4.4
2023-12-26T07:26:59.430Z,4.4
2023-12-26T07:27:59.431Z,4.4
2023-12-26T07:28:59.406Z,4.5
2023-12-26T07:29:59.456Z,4.6
2023-12-26T07:30:59.454Z,4.6
2023-12-26T07:31:59.398Z,4.6
2023-12-26T07:32:59.821Z,4.7
2023-12-26T07:33:59.568Z,4.6
2023-12-26T07:34:59.408Z,4.6
2023-12-26T07:35:59.454Z,4.6
2023-12-26T07:36:59.418Z,4.7
2023-12-26T07:38:06.434Z,4.7
2023-12-26T07:38:59.441Z,4.8
2023-12-26T07:39:59.430Z,4.7
2023-12-26T07:40:59.438Z,4.7
2023-12-26T07:41:59.440Z,4.7
2023-12-26T07:42:59.437Z,4.7
2023-12-26T07:43:59.420Z,4.6
2023-12-26T07:44:59.458Z,4.6
2023-12-26T07:45:59.401Z,4.6
2023-12-26T07:46:59.408Z,4.6
2023-12-26T07:47:59.516Z,4.6
2023-12-26T07:48:59.579Z,4.5
2023-12-26T07:49:59.591Z,4.6
2023-12-26T07:50:59.417Z,4.6
2023-12-26T07:51:59.405Z,4.5
2023-12-26T07:52:59.419Z,4.5
2023-12-26T07:53:59.435Z,4.5
2023-12-26T07:54:59.416Z,4.5
2023-12-26T07:55:59.399Z,4.4
2023-12-26T07:57:00.642Z,4.4
2023-12-26T07:57:59.429Z,4.4
2023-12-26T07:58:59.423Z,4.5
2023-12-26T08:00:03.630Z,4.5
2023-12-26T08:00:59.436Z,4.6
2023-12-26T08:01:59.416Z,4.6
2023-12-26T08:02:59.666Z,4.6
2023-12-26T08:03:59.482Z,4.6
2023-12-26T08:04:59.433Z,4.6
2023-12-26T08:05:59.530Z,4.6
2023-12-26T08:06:59.420Z,4.6
2023-12-26T08:07:59.415Z,4.6
2023-12-26T08:08:59.501Z,4.6
2023-12-26T08:09:59.437Z,4.6
2023-12-26T08:10:59.399Z,4.7
2023-12-26T08:11:59.432Z,4.7
2023-12-26T08:12:59.498Z,4.7
2023-12-26T08:13:59.425Z,4.7
2023-12-26T08:15:05.684Z,4.7
2023-12-26T08:15:59.416Z,4.8
2023-12-26T08:16:59.426Z,4.8
2023-12-26T08:17:59.624Z,4.8
2023-12-26T08:18:59.644Z,4.8
2023-12-26T08:19:59.444Z,4.8
2023-12-26T08:20:59.522Z,4.9
2023-12-26T08:22:08.717Z,4.9
2023-12-26T08:22:59.426Z,4.8
2023-12-26T08:23:59.433Z,4.8
2023-12-26T08:24:59.436Z,4.8
2023-12-26T08:25:59.429Z,4.8
2023-12-26T08:26:59.455Z,4.8
2023-12-26T08:27:59.462Z,4.8
2023-12-26T08:28:59.424Z,4.8
2023-12-26T08:29:59.469Z,4.8
2023-12-26T08:30:59.432Z,4.9
2023-12-26T08:31:59.399Z,4.9
2023-12-26T08:32:59.704Z,4.9
2023-12-26T08:33:59.532Z,4.9
2023-12-26T08:34:59.419Z,5
2023-12-26T08:35:59.449Z,5
2023-12-26T08:36:59.419Z,5
2023-12-26T08:37:59.409Z,5.1
2023-12-26T08:38:59.426Z,5.1
2023-12-26T08:39:59.421Z,5.1
2023-12-26T08:40:59.409Z,5.1
2023-12-26T08:41:59.423Z,5.1
2023-12-26T08:42:59.536Z,5.1
2023-12-26T08:43:59.417Z,5.1
2023-12-26T08:44:59.447Z,5.2
2023-12-26T08:45:59.422Z,5.2
2023-12-26T08:46:59.421Z,5.2
2023-12-26T08:47:59.566Z,5.3
2023-12-26T08:48:59.596Z,5.3
2023-12-26T08:49:59.405Z,5.4
2023-12-26T08:50:59.439Z,5.4
2023-12-26T08:51:59.403Z,5.4
2023-12-26T08:52:59.452Z,5.4
2023-12-26T08:54:00.548Z,5.4
2023-12-26T08:54:59.419Z,5.4
2023-12-26T08:55:59.486Z,5.4
2023-12-26T08:56:59.430Z,5.5
2023-12-26T08:57:59.404Z,5.5
2023-12-26T08:58:59.419Z,5.6
2023-12-26T08:59:59.434Z,5.6
2023-12-26T09:00:59.408Z,5.6
2023-12-26T09:01:59.404Z,5.7
2023-12-26T09:03:06.218Z,5.8
2023-12-26T09:03:59.473Z,5.8
2023-12-26T09:04:59.406Z,5.9
2023-12-26T09:05:59.550Z,5.9
2023-12-26T09:06:59.493Z,5.9
2023-12-26T09:07:59.414Z,5.9
2023-12-26T09:08:59.455Z,5.9
2023-12-26T09:09:59.422Z,5.8
2023-12-26T09:10:59.428Z,5.9
2023-12-26T09:11:59.465Z,5.9
2023-12-26T09:12:59.691Z,6
2023-12-26T09:13:59.416Z,5.9
2023-12-26T09:14:59.431Z,6
2023-12-26T09:15:59.427Z,6
2023-12-26T09:16:59.410Z,6.1
2023-12-26T09:17:59.510Z,6.1
2023-12-26T09:18:59.512Z,6.2
2023-12-26T09:20:02.401Z,6.3
2023-12-26T09:20:59.432Z,6.4
2023-12-26T09:21:59.406Z,6.4
2023-12-26T09:22:59.499Z,6.5
2023-12-26T09:23:59.433Z,6.6
2023-12-26T09:24:59.421Z,6.7
2023-12-26T09:25:59.398Z,6.8
2023-12-26T09:27:03.508Z,6.8
2023-12-26T09:27:59.438Z,6.9
2023-12-26T09:28:59.417Z,6.9
2023-12-26T09:29:59.482Z,7
2023-12-26T09:30:59.479Z,7.1
2023-12-26T09:31:59.441Z,7.1
2023-12-26T09:32:59.718Z,7.1
2023-12-26T09:33:59.599Z,7.2
2023-12-26T09:34:59.417Z,7.2
2023-12-26T09:35:59.429Z,7.3
2023-12-26T09:36:59.397Z,7.4
2023-12-26T09:37:59.396Z,7.4
2023-12-26T09:38:59.400Z,7.4
2023-12-26T09:39:59.403Z,7.4
2023-12-26T09:41:08.994Z,7.5
2023-12-26T09:41:59.455Z,7.6
2023-12-26T09:42:59.411Z,7.6
2023-12-26T09:43:59.421Z,7.6
2023-12-26T09:44:59.452Z,7.6
2023-12-26T09:45:59.399Z,7.6
2023-12-26T09:46:59.419Z,7.6
2023-12-26T09:47:59.645Z,7.6
2023-12-26T09:48:59.564Z,7.6
2023-12-26T09:49:59.670Z,7.6
2023-12-26T09:50:59.558Z,7.7
2023-12-26T09:51:59.499Z,7.7
2023-12-26T09:52:59.532Z,7.8
2023-12-26T09:53:59.469Z,7.8
2023-12-26T09:54:59.399Z,7.8
2023-12-26T09:55:59.398Z,7.8
2023-12-26T09:56:59.466Z,7.9
2023-12-26T09:57:59.450Z,7.9
2023-12-26T09:58:59.414Z,7.9
2023-12-26T09:59:59.457Z,7.9
2023-12-26T10:00:59.424Z,7.9
2023-12-26T10:01:59.428Z,8
2023-12-26T10:02:59.829Z,8
2023-12-26T10:03:59.454Z,8.1
2023-12-26T10:04:59.458Z,8.1
2023-12-26T10:05:59.457Z,8.1
2023-12-26T10:06:59.428Z,8.1
2023-12-26T10:07:59.478Z,8.1
2023-12-26T10:08:59.444Z,8.1
2023-12-26T10:09:59.428Z,8.1
2023-12-26T10:10:59.413Z,8.1
2023-12-26T10:11:59.469Z,8.2
2023-12-26T10:12:59.500Z,8.2
2023-12-26T10:13:59.516Z,8.2
2023-12-26T10:14:59.430Z,8.2
2023-12-26T10:15:59.401Z,8.2
2023-12-26T10:16:59.424Z,8.2
2023-12-26T10:17:59.535Z,8.2
2023-12-26T10:18:59.527Z,8.2
2023-12-26T10:19:59.499Z,8.2
2023-12-26T10:20:59.466Z,8.2
2023-12-26T10:21:59.422Z,8.3
2023-12-26T10:22:59.468Z,8.3
2023-12-26T10:23:59.479Z,8.2
2023-12-26T10:24:59.423Z,8.2
2023-12-26T10:25:59.397Z,8.3
2023-12-26T10:26:59.443Z,8.3
2023-12-26T10:27:59.432Z,8.3
2023-12-26T10:28:59.399Z,8.4
2023-12-26T10:29:59.464Z,8.4
2023-12-26T10:30:59.449Z,8.4
2023-12-26T10:31:59.434Z,8.4
2023-12-26T10:32:59.904Z,8.4
2023-12-26T10:33:59.508Z,8.4
2023-12-26T10:34:59.445Z,8.4
2023-12-26T10:35:59.453Z,8.5
2023-12-26T10:36:59.430Z,8.4
2023-12-26T10:37:59.430Z,8.4
2023-12-26T10:38:59.469Z,8.5
2023-12-26T10:39:59.423Z,8.5
2023-12-26T10:40:59.405Z,8.6
2023-12-26T10:41:59.424Z,8.6
2023-12-26T10:43:00.072Z,8.6
2023-12-26T10:44:03.775Z,8.6
2023-12-26T10:44:59.434Z,8.7
2023-12-26T10:45:59.421Z,8.7
2023-12-26T10:46:59.424Z,8.8
2023-12-26T10:47:59.510Z,8.8
2023-12-26T10:48:59.633Z,8.8
2023-12-26T10:49:59.515Z,8.8
2023-12-26T10:50:59.448Z,8.8
2023-12-26T10:51:59.437Z,8.8
2023-12-26T10:52:59.576Z,8.8
2023-12-26T10:53:59.476Z,8.8
2023-12-26T10:55:00.915Z,8.8
2023-12-26T10:55:59.410Z,8.8
2023-12-26T10:56:59.434Z,8.9
2023-12-26T10:57:59.413Z,8.9
2023-12-26T10:59:07.203Z,8.9
2023-12-26T10:59:59.494Z,9
2023-12-26T11:00:59.483Z,9.1
2023-12-26T11:02:07.507Z,9.1
2023-12-26T11:02:59.879Z,9.1
2023-12-26T11:03:59.548Z,9.2
2023-12-26T11:04:59.436Z,9.2
2023-12-26T11:05:59.501Z,9.2
2023-12-26T11:06:59.417Z,9.4
2023-12-26T11:07:59.461Z,9.4
2023-12-26T11:08:59.423Z,9.5
2023-12-26T11:09:59.417Z,9.6
2023-12-26T11:10:59.417Z,9.6
2023-12-26T11:12:01.945Z,9.7
2023-12-26T11:13:06.596Z,9.8
2023-12-26T11:13:59.439Z,9.8
2023-12-26T11:14:59.449Z,9.9
2023-12-26T11:15:59.429Z,9.9
2023-12-26T11:16:59.428Z,9.9
2023-12-26T11:17:59.489Z,9.9
2023-12-26T11:18:59.694Z,9.9
2023-12-26T11:19:59.413Z,9.9
2023-12-26T11:20:59.463Z,9.9
2023-12-26T11:21:59.422Z,9.9
2023-12-26T11:22:59.422Z,9.9
2023-12-26T11:23:59.447Z,9.8
2023-12-26T11:24:59.748Z,9.8
2023-12-26T11:25:59.451Z,9.8
2023-12-26T11:27:11.197Z,9.8
2023-12-26T11:27:59.479Z,9.8
2023-12-26T11:28:59.453Z,9.8
2023-12-26T11:30:03.246Z,9.8
2023-12-26T11:30:59.431Z,9.8
2023-12-26T11:31:59.425Z,9.8
2023-12-26T11:32:59.513Z,9.9
2023-12-26T11:33:59.609Z,9.8
2023-12-26T11:34:59.459Z,9.8
2023-12-26T11:35:59.475Z,9.8
2023-12-26T11:37:05.032Z,9.8
2023-12-26T11:37:59.405Z,9.9
2023-12-26T11:38:59.457Z,9.9
2023-12-26T11:39:59.472Z,9.9
2023-12-26T11:40:59.417Z,9.9
2023-12-26T11:41:59.516Z,10
2023-12-26T11:42:59.444Z,10
2023-12-26T11:43:59.444Z,10
2023-12-26T11:44:59.467Z,10
2023-12-26T11:45:59.430Z,10.1
2023-12-26T11:46:59.425Z,10.1
2023-12-26T11:47:59.577Z,10.1
2023-12-26T11:48:59.583Z,10.1
2023-12-26T11:49:59.594Z,10.2
2023-12-26T11:50:59.431Z,10.2
2023-12-26T11:51:59.480Z,10.2
2023-12-26T11:52:59.406Z,10.2
2023-12-26T11:53:59.478Z,10.2
2023-12-26T11:54:59.493Z,10.3
2023-12-26T11:55:59.406Z,10.3
2023-12-26T11:57:03.660Z,10.4
2023-12-26T11:57:59.427Z,10.4
2023-12-26T11:58:59.411Z,10.4
2023-12-26T11:59:59.491Z,10.4
2023-12-26T12:00:59.431Z,10.4
2023-12-26T12:01:59.435Z,10.4
2023-12-26T12:02:59.465Z,10.4
2023-12-26T12:03:59.523Z,10.5
2023-12-26T12:04:59.421Z,10.6
2023-12-26T12:05:59.479Z,10.6
2023-12-26T12:06:59.474Z,10.6
2023-12-26T12:07:59.443Z,10.7
2023-12-26T12:08:59.461Z,10.8
2023-12-26T12:09:59.409Z,10.8
2023-12-26T12:10:59.415Z,10.8
2023-12-26T12:11:59.502Z,10.8
2023-12-26T12:12:59.417Z,10.8
2023-12-26T12:13:59.428Z,10.9
2023-12-26T12:14:59.480Z,10.9
2023-12-26T12:15:59.428Z,10.9
2023-12-26T12:16:59.419Z,10.9
2023-12-26T12:17:59.536Z,10.9
2023-12-26T12:18:59.555Z,10.9
2023-12-26T12:19:59.531Z,10.9
2023-12-26T12:20:59.491Z,10.9
2023-12-26T12:21:59.407Z,10.9
2023-12-26T12:22:59.421Z,10.9
2023-12-26T12:23:59.462Z,10.9
2023-12-26T12:25:04.283Z,11
2023-12-26T12:25:59.414Z,11
2023-12-26T12:26:59.751Z,11.1
2023-12-26T12:27:59.450Z,11.1
2023-12-26T12:28:59.438Z,11.1
2023-12-26T12:29:59.511Z,11.1
2023-12-26T12:30:59.538Z,11.1
2023-12-26T12:31:59.405Z,11.1
2023-12-26T12:32:59.491Z,11.1
2023-12-26T12:33:59.652Z,11.2
2023-12-26T12:34:59.432Z,11.2
2023-12-26T12:35:59.525Z,11.2
2023-12-26T12:36:59.421Z,11.3
2023-12-26T12:37:59.756Z,11.4
2023-12-26T12:38:59.518Z,11.4
2023-12-26T12:39:59.534Z,11.4
2023-12-26T12:41:01.614Z,11.4
2023-12-26T12:41:59.548Z,11.5
2023-12-26T12:42:59.417Z,11.6
2023-12-26T12:43:59.497Z,11.7
2023-12-26T12:44:59.487Z,11.7
2023-12-26T12:45:59.444Z,11.8
2023-12-26T12:46:59.424Z,11.8
2023-12-26T12:47:59.511Z,11.9
2023-12-26T12:48:59.465Z,12
2023-12-26T12:49:59.472Z,12.1
2023-12-26T12:50:59.445Z,12.1
2023-12-26T12:51:59.434Z,12.1
2023-12-26T12:52:59.416Z,12.2
2023-12-26T12:53:59.448Z,12.2
2023-12-26T12:54:59.419Z,12.2
2023-12-26T12:55:59.460Z,12.2
2023-12-26T12:56:59.481Z,12.2
2023-12-26T12:57:59.406Z,12.2
2023-12-26T12:59:06.741Z,12.2
2023-12-26T12:59:59.519Z,12.1
2023-12-26T13:01:02.648Z,12.1
2023-12-26T13:01:59.421Z,12.1
2023-12-26T13:02:59.470Z,12.1
2023-12-26T13:03:59.434Z,12.1
2023-12-26T13:04:59.577Z,12.1
2023-12-26T13:05:59.546Z,12.1
2023-12-26T13:06:59.453Z,12.1
2023-12-26T13:07:59.470Z,12
2023-12-26T13:08:59.511Z,12
2023-12-26T13:09:59.404Z,12
2023-12-26T13:10:59.426Z,12
2023-12-26T13:11:59.407Z,12
2023-12-26T13:12:59.411Z,12.1
2023-12-26T13:13:59.409Z,12.1
2023-12-26T13:15:02.656Z,12.1
2023-12-26T13:15:59.449Z,12.1
2023-12-26T13:16:59.412Z,12.2
2023-12-26T13:17:59.521Z,12.2
2023-12-26T13:18:59.563Z,12.2
2023-12-26T13:19:59.493Z,12.2
2023-12-26T13:20:59.431Z,12.2
2023-12-26T13:22:03.972Z,12.3
2023-12-26T13:22:59.441Z,12.3
2023-12-26T13:23:59.462Z,12.4
2023-12-26T13:25:01.420Z,12.4
2023-12-26T13:25:59.673Z,12.4
2023-12-26T13:26:59.437Z,12.5
2023-12-26T13:27:59.418Z,12.5
2023-12-26T13:28:59.413Z,12.6
2023-12-26T13:29:59.476Z,12.6
2023-12-26T13:30:59.509Z,12.6
2023-12-26T13:32:00.485Z,12.7
2023-12-26T13:32:59.516Z,12.6
2023-12-26T13:33:59.534Z,12.7
2023-12-26T13:34:59.447Z,12.7
2023-12-26T13:35:59.450Z,12.7
2023-12-26T13:36:59.412Z,12.7
2023-12-26T13:38:00.205Z,12.7
2023-12-26T13:38:59.485Z,12.8
2023-12-26T13:39:59.421Z,12.7
2023-12-26T13:40:59.422Z,12.8
2023-12-26T13:41:59.430Z,12.8
2023-12-26T13:42:59.417Z,12.7
2023-12-26T13:43:59.431Z,12.7
2023-12-26T13:44:59.445Z,12.6
2023-12-26T13:45:59.429Z,12.6
2023-12-26T13:46:59.423Z,12.6
2023-12-26T13:47:59.658Z,12.6
2023-12-26T13:48:59.595Z,12.6